Station: Leigh Creek

  Atmospheric Gas Attenuation - ITU Rec 676-11   --------------- db/100km ---------------
Date Time Temp RH % AH g/m3 Dew Point Wind Direction Speed kph Gust kph Barometer mB Rainfall Since 9am 24GHz 47GHz 76GHz 122GHz 134GHz 241GHz
15 01:00 12.9 72 8.12 8 19 24 1018.6 0 18.6 25.6 38.6 101.0 93.6 321.5
15 00:50 13.1 71 8.1 8 19 20 1018.8 0 18.5 25.5 38.4 100.6 93.1 319.8
15 00:40 13.3 71 8.2 8.2 19 20 1018.8 0 18.8 25.6 38.7 101.4 94.2 323.6
15 00:30 13.5 70 8.19 8.1 20 26 1018.6 0 18.7 25.5 38.5 101.0 93.8 322.3
15 00:20 13.5 69 8.07 7.9 17 20 1018.7 0 18.5 25.3 38.1 99.8 92.2 316.8
15 00:10 13.7 67 7.93 7.7 17 19 1018.7 0 18.2 25.1 37.4 98.0 90.2 309.7
15 00:00 13.9 67 8.03 7.9 15 20 1018.6 0 18.4 25.2 37.7 98.8 91.2 313.4
14 23:50 14.2 63 7.69 7.3 13 15 1018.7 0 17.6 24.5 36.3 94.9 86.5 296.9
14 23:40 14.7 64 8.06 8 26 28 1018.6 0 18.4 25.0 37.5 98.1 90.7 311.6
14 23:30 14.8 62 7.85 7.6 20 28 1018.4 0 17.9 24.6 36.6 95.8 87.9 301.8
14 23:20 14.8 61 7.73 7.4 22 26 1018.6 0 17.7 24.4 36.1 94.6 86.4 296.5
14 23:10 14.8 61 7.73 7.4 22 24 1018.7 0 17.7 24.4 36.1 94.6 86.4 296.5
14 23:00 14.9 60 7.65 7.2 19 24 1018.7 0 17.5 24.3 35.8 93.7 85.3 292.6
14 22:50 15.1 59 7.61 7.2 19 20 1018.8 0 17.4 24.2 35.6 93.0 84.6 290.1
14 22:40 15.1 59 7.61 7.2 19 20 1018.9 0 17.4 24.2 35.6 93.1 84.6 290.1
14 22:30 15.4 58 7.62 7.2 22 30 1018.7 0 17.4 24.1 35.5 92.8 84.4 289.4
14 22:20 15.4 58 7.62 7.2 24 28 1018.8 0 17.4 24.1 35.5 92.8 84.4 289.5
14 22:10 15.3 57 7.44 6.8 17 20 1018.7 0 17.0 23.9 34.8 91.1 82.2 281.9
14 22:00 15.6 57 7.58 7.1 19 22 1018.7 0 17.3 24.0 35.2 92.2 83.6 287.0
14 21:50 15.7 57 7.63 7.2 19 22 1018.7 0 17.4 24.0 35.4 92.5 84.2 288.8
14 21:40 15.7 57 7.63 7.2 19 20 1018.7 0 17.4 24.0 35.4 92.5 84.2 288.8
14 21:30 15.8 57 7.67 7.3 15 24 1018.5 0 17.5 24.1 35.5 92.8 84.5 290.1
14 21:20 15.8 57 7.67 7.3 15 17 1018.6 0 17.5 24.1 35.5 92.8 84.5 290.1
14 21:10 15.9 56 7.58 7.1 15 17 1018.5 0 17.3 23.9 35.1 91.8 83.3 285.8
14 21:00 16.1 56 7.68 7.3 19 28 1018.4 0 17.5 24.0 35.4 92.6 84.3 289.4
14 20:50 16.4 56 7.82 7.6 24 28 1018.5 0 17.8 24.1 35.8 93.6 85.8 294.5
14 20:40 16.1 56 7.68 7.3 15 19 1018.4 0 17.5 24.0 35.4 92.6 84.3 289.4
14 20:30 16 57 7.77 7.5 17 24 1018.3 0 17.7 24.2 35.7 93.6 85.6 293.7
14 20:20 15.9 56 7.58 7.1 20 22 1018.4 0 17.3 23.9 35.1 91.8 83.3 285.8
14 20:10 16.1 56 7.68 7.3 26 30 1018.3 0 17.5 24.0 35.4 92.5 84.3 289.4
14 20:00 16 56 7.63 7.2 20 28 1018.2 0 17.4 23.9 35.2 92.2 83.8 287.6
14 19:50 15.7 56 7.49 7 20 26 1018.4 0 17.1 23.8 34.8 91.1 82.4 282.6
14 19:40 15.7 55 7.36 6.7 19 20 1018.5 0 16.9 23.6 34.3 89.8 80.8 277.0
14 19:30 15.7 55 7.36 6.7 19 24 1018.3 0 16.9 23.6 34.3 89.8 80.8 277.0
14 19:20 15.6 55 7.31 6.6 15 17 1018.1 0 16.8 23.6 34.2 89.4 80.3 275.1
14 19:10 15.4 55 7.23 6.4 15 24 1017.9 0 16.6 23.5 34.0 88.8 79.5 272.3
14 19:00 15.7 54 7.22 6.4 20 28 1017.9 0 16.6 23.4 33.8 88.4 79.0 270.8
14 18:50 15.9 53 7.18 6.3 19 22 1017.9 0 16.5 23.3 33.6 87.7 78.3 268.4
14 18:40 16.2 54 7.45 6.9 28 32 1017.8 0 17.0 23.6 34.4 90.1 81.3 279.0
14 18:30 16.2 54 7.45 6.9 20 30 1017.5 0 17.0 23.6 34.4 90.1 81.3 278.9
14 18:20 16.3 54 7.49 7 22 24 1017.5 0 17.1 23.6 34.5 90.3 81.7 280.3
14 18:10 16.3 54 7.49 7 19 22 1017.4 0 17.1 23.6 34.5 90.3 81.7 280.3
14 18:00 16.6 54 7.63 7.3 24 32 1017.2 0 17.4 23.8 34.9 91.4 83.1 285.2
14 17:50 16.8 53 7.58 7.2 30 35 1017.3 0 17.3 23.6 34.6 90.7 82.3 282.4
14 17:40 16.9 51 7.33 6.7 26 28 1017.1 0 16.7 23.2 33.7 88.1 79.1 271.3
14 17:30 17 52 7.52 7.1 22 30 1017 0 17.1 23.5 34.3 89.8 81.3 279.0
14 17:20 17 51 7.38 6.8 17 20 1017.1 0 16.9 23.3 33.8 88.4 79.6 273.1
14 17:10 17.2 50 7.32 6.7 19 20 1017.1 0 16.7 23.1 33.5 87.6 78.7 269.9
14 17:00 17.6 48 7.2 6.5 30 39 1016.7 0 16.4 22.8 32.9 86.0 76.8 263.4
14 16:50 17.8 46 6.98 6 33 37 1016.7 0 16.0 22.5 32.0 83.7 74.0 253.6
14 16:40 18 47 7.22 6.5 32 35 1016.6 0 16.5 22.8 32.8 85.8 76.7 262.9
14 16:30 18.2 46 7.15 6.4 26 35 1016.5 0 16.3 22.6 32.5 84.9 75.7 259.3
14 16:20 18.1 46 7.11 6.3 26 35 1016.4 0 16.2 22.6 32.4 84.6 75.3 258.0
14 16:10 18.7 44 7.04 6.2 30 32 1016.3 0 16.1 22.3 31.9 83.3 73.9 253.2
14 16:00 19 43 7.01 6.2 24 37 1016.2 0 16.0 22.2 31.6 82.7 73.3 251.0
14 15:50 18.7 44 7.04 6.2 30 35 1016.2 0 16.1 22.3 31.9 83.3 73.9 253.2
14 15:40 18.9 44 7.13 6.4 24 28 1016.1 0 16.2 22.4 32.1 83.9 74.7 256.2
14 15:30 19 41 6.68 5.5 26 33 1016 0 15.3 21.7 30.5 79.6 69.4 237.6
14 15:20 19.3 42 6.97 6.1 20 24 1016 0 15.9 22.1 31.4 82.0 72.5 248.4
14 15:10 19.3 42 6.97 6.1 24 28 1016 0 15.9 22.1 31.4 82.0 72.5 248.4
14 15:00 19.4 40 6.67 5.5 28 37 1015.9 0 15.3 21.6 30.3 79.1 69.0 236.0
14 14:50 19.4 43 7.17 6.5 28 33 1015.9 0 16.3 22.3 32.0 83.8 74.7 256.2
14 14:40 19.5 42 7.05 6.3 24 30 1016.1 0 16.1 22.1 31.6 82.5 73.3 251.1
14 14:30 19.3 44 7.3 6.8 24 35 1015.9 0 16.6 22.5 32.5 85.1 76.3 261.9
14 14:20 19.4 44 7.34 6.8 24 28 1016 0 16.7 22.6 32.6 85.4 76.7 263.2
14 14:10 19.5 42 7.05 6.3 22 28 1016.1 0 16.1 22.1 31.6 82.5 73.3 251.1
14 14:00 19.5 45 7.55 7.3 28 39 1016 0 17.1 22.9 33.4 87.3 79.1 271.5
14 13:50 19.2 47 7.75 7.6 19 24 1016.2 0 17.5 23.2 34.2 89.5 81.8 280.9
14 13:40 19.5 47 7.89 7.9 19 22 1016.4 0 17.8 23.4 34.6 90.6 83.2 285.8
14 13:30 19.1 48 7.87 7.8 26 35 1016.3 0 17.8 23.4 34.7 90.8 83.3 286.3
14 13:20 19.7 47 7.98 8.1 26 35 1016.6 0 18.0 23.4 34.8 91.2 84.0 288.9
14 13:10 19.3 48 7.96 8 24 28 1016.7 0 18.0 23.5 34.9 91.5 84.2 289.5
14 13:00 19.8 47 8.03 8.2 20 33 1016.8 0 18.1 23.5 35.0 91.6 84.5 290.7
14 12:50 19.1 49 8.03 8.1 11 13 1017.1 0 18.1 23.7 35.3 92.5 85.3 293.3
14 12:40 19.2 49 8.08 8.2 15 19 1017.3 0 18.2 23.7 35.4 92.8 85.8 295.1
14 12:30 18.9 48 7.78 7.7 19 28 1017.3 0 17.6 23.4 34.5 90.3 82.5 283.5
14 12:20 19.5 48 8.06 8.2 17 20 1017.6 0 18.2 23.7 35.3 92.3 85.3 293.2
14 12:10 18.3 52 8.13 8.3 17 19 1017.9 0 18.4 24.1 36.1 94.4 87.5 300.7
14 12:00 18.3 53 8.29 8.6 19 26 1018 0 18.7 24.3 36.7 96.1 89.4 307.6
14 11:50 18.3 53 8.29 8.6 19 20 1018.2 0 18.7 24.3 36.7 96.1 89.4 307.6
14 11:40 18.1 53 8.19 8.4 20 24 1018.3 0 18.5 24.2 36.4 95.3 88.4 304.1
14 11:30 18.3 55 8.6 9.1 17 24 1018.3 0 19.4 24.8 37.8 99.2 93.3 321.1
14 11:20 17.4 56 8.3 8.5 13 17 1018.6 0 18.8 24.6 37.1 97.3 90.6 311.7
14 11:10 16.9 58 8.34 8.6 20 24 1018.7 0 18.9 24.8 37.5 98.3 91.7 315.4
14 11:00 16.2 59 8.14 8.2 20 28 1018.7 0 18.5 24.7 37.1 97.1 90.0 309.3
14 10:50 16.6 58 8.19 8.3 20 22 1019.1 0 18.6 24.7 37.1 97.2 90.2 310.1
14 10:40 16.7 60 8.53 8.9 19 22 1019.1 0 19.3 25.2 38.4 100.6 94.4 324.7
14 10:30 16.4 59 8.23 8.4 20 28 1019.3 0 18.7 24.8 37.4 97.9 90.9 312.7
14 10:20 16.2 59 8.14 8.2 22 26 1019.2 0 18.5 24.7 37.1 97.2 90.0 309.4
14 10:10 15.4 63 8.28 8.4 20 22 1019.3 0 18.8 25.2 38.0 99.6 92.8 318.9
14 10:00 15.4 65 8.54 8.9 20 24 1019.4 0 19.4 25.6 39.0 102.4 96.1 330.6
14 09:50 14.8 65 8.23 8.3 22 24 1019.3 0 18.7 25.2 38.1 99.9 92.8 319.0
14 09:40 15.1 66 8.51 8.8 19 22 1019.4 0 19.3 25.6 39.1 102.4 96.1 330.5
14 09:30 14.8 66 8.36 8.5 20 22 1019.3 0 19.0 25.4 38.6 101.2 94.5 324.9
14 09:20 14.7 66 8.31 8.4 19 20 1019.1 0 18.9 25.4 38.5 100.8 94.0 323.0
14 09:10 14.6 66 8.26 8.3 20 22 1019 0 18.8 25.3 38.3 100.4 93.4 321.1
14 09:00 14.5 67 8.33 8.5 22 26 1018.8 0 19.0 25.5 38.6 101.2 94.4 324.7
14 08:50 14.3 68 8.35 8.5 20 22 1018.7 0 19.0 25.6 38.8 101.7 94.9 326.4
14 08:40 14.3 68 8.35 8.5 19 20 1018.6 0 19.0 25.5 38.8 101.7 94.9 326.3
14 08:30 14.2 69 8.43 8.6 19 22 1018.6 0 19.2 25.7 39.2 102.7 96.1 330.4

Last Refresh: 15-Jun-2024 01:04:13

Bureau of Meteorology